createdAt,value
2022-11-22T00:01:57.314Z,99038.38
2022-11-22T00:04:25.979Z,99029.03
2022-11-22T00:06:54.837Z,99026.44
2022-11-22T00:09:23.841Z,99032.47
2022-11-22T00:11:53.413Z,99029.91
2022-11-22T00:14:22.557Z,99032.53
2022-11-22T00:16:52.397Z,99032.44
2022-11-22T00:19:25.981Z,99033.19
2022-11-22T00:21:54.928Z,99033.19
2022-11-22T00:24:23.618Z,99034.84
2022-11-22T00:26:52.449Z,99037.41
2022-11-22T00:29:21.490Z,99038.19
2022-11-22T00:31:50.428Z,99033.03
2022-11-22T00:34:19.148Z,99042.50
2022-11-22T00:36:49.268Z,99050.25
2022-11-22T00:39:18.743Z,99048.47
2022-11-22T00:41:47.328Z,99051.94
2022-11-22T00:44:16.696Z,99052.91
2022-11-22T00:46:45.523Z,99054.72
2022-11-22T00:49:14.456Z,99055.56
2022-11-22T00:51:43.498Z,99050.34
2022-11-22T00:54:14.007Z,99051.09
2022-11-22T00:56:42.519Z,99044.97
2022-11-22T00:59:12.005Z,99044.91
2022-11-22T01:01:40.904Z,99031.22
2022-11-22T01:04:10.091Z,99033.91
2022-11-22T01:06:38.470Z,99027.91
2022-11-22T01:09:07.398Z,99028.72
2022-11-22T01:11:37.209Z,99029.56
2022-11-22T01:14:07.808Z,99028.84
2022-11-22T01:16:36.217Z,99034.97
2022-11-22T01:19:04.645Z,99024.72
2022-11-22T01:21:33.151Z,99026.56
2022-11-22T01:24:02.370Z,99020.66
2022-11-22T01:26:31.215Z,99029.44
2022-11-22T01:29:01.768Z,99032.25
2022-11-22T01:31:30.528Z,99029.09
2022-11-22T01:33:59.576Z,99029.19
2022-11-22T01:36:28.522Z,99031.91
2022-11-22T01:38:57.440Z,99020.88
2022-11-22T01:41:25.846Z,99030.50
2022-11-22T01:43:54.562Z,99037.50
2022-11-22T01:46:33.667Z,99034.97
2022-11-22T01:49:05.715Z,99038.53
2022-11-22T01:51:38.435Z,99034.22
2022-11-22T01:54:11.581Z,99032.50
2022-11-22T01:56:42.716Z,99038.47
2022-11-22T01:59:15.967Z,99043.56
2022-11-22T02:01:46.117Z,99054.69
2022-11-22T02:04:18.067Z,99048.59
2022-11-22T02:06:55.690Z,99052.72
2022-11-22T02:09:24.646Z,99038.84
2022-11-22T02:11:55.447Z,99039.63
2022-11-22T02:14:27.193Z,99037.78
2022-11-22T02:16:57.107Z,99042.88
2022-11-22T02:19:35.024Z,99044.56
2022-11-22T02:22:12.202Z,99032.41
2022-11-22T02:24:47.863Z,99029.69
2022-11-22T02:27:18.381Z,99036.50
2022-11-22T02:29:47.172Z,99037.31
2022-11-22T02:32:15.867Z,99050.28
2022-11-22T02:34:45.897Z,99059.91
2022-11-22T02:37:17.756Z,99057.44
2022-11-22T02:39:49.591Z,99067.84
2022-11-22T02:42:19.434Z,99068.75
2022-11-22T02:44:48.091Z,99073.00
2022-11-22T02:47:16.469Z,99074.69
2022-11-22T02:49:45.203Z,99076.38
2022-11-22T02:52:18.650Z,99082.38
2022-11-22T02:54:47.396Z,99078.97
2022-11-22T02:57:15.945Z,99090.94
2022-11-22T02:59:46.424Z,99096.09
2022-11-22T03:02:14.940Z,99097.84
2022-11-22T03:04:43.563Z,99103.84
2022-11-22T03:07:12.252Z,99096.91
2022-11-22T03:09:40.793Z,99096.06
2022-11-22T03:12:09.440Z,99088.28
2022-11-22T03:14:37.889Z,99089.00
2022-11-22T03:17:07.923Z,99076.91
2022-11-22T03:19:36.674Z,99088.06
2022-11-22T03:22:05.316Z,99078.59
2022-11-22T03:24:33.964Z,99074.31
2022-11-22T03:27:02.740Z,99068.34
2022-11-22T03:29:31.518Z,99065.84
2022-11-22T03:32:00.851Z,99072.81
2022-11-22T03:34:30.937Z,99059.91
2022-11-22T03:36:59.733Z,99068.53
2022-11-22T03:39:28.562Z,99072.84
2022-11-22T03:41:57.471Z,99081.41
2022-11-22T03:44:26.279Z,99068.41
2022-11-22T03:46:54.842Z,99069.16
2022-11-22T03:49:23.520Z,99068.19
2022-11-22T03:51:53.430Z,99065.56
2022-11-22T03:54:22.962Z,99069.03
2022-11-22T03:56:51.658Z,99069.84
2022-11-22T03:59:22.230Z,99061.16
2022-11-22T04:01:51.158Z,99056.78
2022-11-22T04:04:20.648Z,99064.47
2022-11-22T04:06:49.306Z,99072.28
2022-11-22T04:09:19.576Z,99077.34
2022-11-22T04:11:48.272Z,99065.25
2022-11-22T04:14:33.937Z,99067.75
2022-11-22T04:17:02.965Z,99059.19
2022-11-22T04:19:32.156Z,99062.66
2022-11-22T04:21:59.607Z,99060.03
2022-11-22T04:24:46.911Z,99059.16
2022-11-22T04:27:15.457Z,99068.69
2022-11-22T04:29:43.964Z,99066.19
2022-11-22T04:32:29.904Z,99072.19
2022-11-22T04:34:58.481Z,99078.22
2022-11-22T04:37:26.750Z,99078.25
2022-11-22T04:39:56.982Z,99083.34
2022-11-22T04:42:42.779Z,99071.25
2022-11-22T04:45:12.112Z,99061.78
2022-11-22T04:47:57.730Z,99060.00
2022-11-22T04:50:44.289Z,99064.25
2022-11-22T04:53:12.683Z,99065.09
2022-11-22T04:55:43.397Z,99066.84
2022-11-22T04:58:12.667Z,99066.91
2022-11-22T05:00:41.908Z,99063.41
2022-11-22T05:03:10.923Z,99069.50
2022-11-22T05:05:41.145Z,99064.38
2022-11-22T05:08:09.941Z,99061.84
2022-11-22T05:10:53.207Z,99070.41
2022-11-22T05:13:25.398Z,99060.19
2022-11-22T05:15:53.976Z,99062.91
2022-11-22T05:18:23.840Z,99066.31
2022-11-22T05:20:53.251Z,99061.19
2022-11-22T05:23:41.082Z,99066.41
2022-11-22T05:26:11.484Z,99071.56
2022-11-22T05:28:41.901Z,99076.69
2022-11-22T05:31:12.162Z,99079.16
2022-11-22T05:33:42.844Z,99082.50
2022-11-22T05:36:12.425Z,99079.91
2022-11-22T05:38:41.174Z,99083.28
2022-11-22T05:41:11.608Z,99088.41
2022-11-22T05:43:41.909Z,99092.78
2022-11-22T05:46:12.018Z,99091.94
2022-11-22T05:48:43.487Z,99097.22
2022-11-22T05:51:14.842Z,99088.59
2022-11-22T05:53:46.581Z,99098.09
2022-11-22T05:56:17.296Z,99107.63
2022-11-22T05:58:48.280Z,99108.50
2022-11-22T06:01:21.943Z,99109.41
2022-11-22T06:03:51.447Z,99105.09
2022-11-22T06:06:20.818Z,99115.41
2022-11-22T06:08:51.820Z,99114.56
2022-11-22T06:11:22.514Z,99119.72
2022-11-22T06:13:54.227Z,99121.47
2022-11-22T06:16:24.440Z,99132.66
2022-11-22T06:18:54.890Z,99131.75
2022-11-22T06:21:24.908Z,99134.28
2022-11-22T06:23:55.829Z,99131.69
2022-11-22T06:26:26.063Z,99130.78
2022-11-22T06:28:56.865Z,99134.22
2022-11-22T06:31:27.409Z,99129.00
2022-11-22T06:33:57.564Z,99128.03
2022-11-22T06:36:28.616Z,99133.06
2022-11-22T06:38:57.446Z,99138.22
2022-11-22T06:41:29.214Z,99139.06
2022-11-22T06:43:59.867Z,99131.22
2022-11-22T06:46:29.037Z,99131.13
2022-11-22T06:48:57.908Z,99130.03
2022-11-22T06:51:28.829Z,99132.56
2022-11-22T06:53:58.895Z,99138.63
2022-11-22T06:56:29.586Z,99136.09
2022-11-22T06:59:02.908Z,99137.78
2022-11-22T07:01:32.859Z,99150.72
2022-11-22T07:04:03.733Z,99146.38
2022-11-22T07:06:34.601Z,99144.69
2022-11-22T07:09:05.920Z,99143.81
2022-11-22T07:11:36.345Z,99128.31
2022-11-22T07:14:08.800Z,99141.09
2022-11-22T07:16:39.419Z,99146.94
2022-11-22T07:19:09.161Z,99145.09
2022-11-22T07:21:38.718Z,99146.78
2022-11-22T07:24:09.050Z,99148.50
2022-11-22T07:26:37.998Z,99149.25
2022-11-22T07:29:08.786Z,99151.69
2022-11-22T07:31:37.192Z,99154.22
2022-11-22T07:34:06.342Z,99154.16
2022-11-22T07:36:35.304Z,99149.75
2022-11-22T07:39:05.802Z,99151.41
2022-11-22T07:41:34.609Z,99154.75
2022-11-22T07:44:03.274Z,99160.75
2022-11-22T07:46:33.711Z,99160.72
2022-11-22T07:49:03.503Z,99168.41
2022-11-22T07:51:32.815Z,99171.06
2022-11-22T07:54:01.523Z,99169.25
2022-11-22T07:56:30.398Z,99169.22
2022-11-22T07:58:59.540Z,99147.56
2022-11-22T08:01:28.030Z,99158.53
2022-11-22T08:03:58.796Z,99157.53
2022-11-22T08:06:27.878Z,99159.94
2022-11-22T08:09:01.739Z,99154.69
2022-11-22T08:11:31.747Z,99160.59
2022-11-22T08:14:00.514Z,99150.94
2022-11-22T08:16:29.154Z,99155.19
2022-11-22T08:19:01.667Z,99159.38
2022-11-22T08:21:30.312Z,99161.09
2022-11-22T08:24:00.253Z,99161.88
2022-11-22T08:26:29.270Z,99160.00
2022-11-22T08:29:01.227Z,99152.97
2022-11-22T08:31:33.045Z,99154.56
2022-11-22T08:34:06.464Z,99159.53
2022-11-22T08:36:35.183Z,99164.66
2022-11-22T08:39:04.813Z,99155.06
2022-11-22T08:41:34.159Z,99146.38
2022-11-22T08:44:03.047Z,99152.38
2022-11-22T08:46:32.501Z,99156.59
2022-11-22T08:49:03.935Z,99159.09
2022-11-22T08:51:37.314Z,99168.50
2022-11-22T08:54:06.319Z,99171.00
2022-11-22T08:56:35.420Z,99168.41
2022-11-22T08:59:04.130Z,99179.66
2022-11-22T09:01:33.851Z,99176.06
2022-11-22T09:04:03.110Z,99167.28
2022-11-22T09:09:37.219Z,99167.91
2022-11-22T09:12:07.187Z,99171.25
2022-11-22T09:14:36.757Z,99170.34
2022-11-22T09:17:08.671Z,99164.22
2022-11-22T09:19:40.361Z,99171.91
2022-11-22T09:22:16.054Z,99180.38
2022-11-22T09:24:48.560Z,99178.66
2022-11-22T09:27:24.714Z,99176.94
2022-11-22T09:29:56.719Z,99188.13
2022-11-22T09:32:30.768Z,99176.97
2022-11-22T09:35:02.586Z,99180.31
2022-11-22T09:37:34.410Z,99186.31
2022-11-22T09:40:07.509Z,99188.91
2022-11-22T09:43:08.479Z,99188.94
2022-11-22T09:45:53.770Z,99185.50
2022-11-22T09:48:44.833Z,99195.94
2022-11-22T09:51:26.708Z,99199.44
2022-11-22T09:54:06.885Z,99207.22
2022-11-22T09:56:36.986Z,99201.97
2022-11-22T09:59:15.767Z,99195.84
2022-11-22T10:01:52.887Z,99197.47
2022-11-22T10:04:26.215Z,99194.88
2022-11-22T10:07:02.853Z,99203.44
2022-11-22T10:09:40.784Z,99189.66
2022-11-22T10:12:19.096Z,99193.06
2022-11-22T10:14:57.002Z,99188.00
2022-11-22T10:17:40.242Z,99191.53
2022-11-22T10:20:15.696Z,99188.03
2022-11-22T10:22:45.032Z,99187.00
2022-11-22T10:25:23.301Z,99193.88
2022-11-22T10:28:00.579Z,99191.28
2022-11-22T10:30:36.130Z,99187.78
2022-11-22T10:33:20.201Z,99177.38
2022-11-22T10:36:07.854Z,99179.06
2022-11-22T10:39:09.169Z,99192.03
2022-11-22T10:41:56.151Z,99195.56
2022-11-22T10:44:43.901Z,99187.78
2022-11-22T10:47:39.193Z,99192.00
2022-11-22T10:50:23.053Z,99191.09
2022-11-22T10:53:06.804Z,99189.34
2022-11-22T10:55:57.255Z,99188.31
2022-11-22T10:58:38.753Z,99172.66
2022-11-22T11:01:20.989Z,99170.88
2022-11-22T11:03:55.019Z,99182.97
2022-11-22T11:06:57.030Z,99176.88
2022-11-22T11:12:29.033Z,99172.56
2022-11-22T11:15:11.457Z,99174.25
2022-11-22T11:17:44.003Z,99173.41
2022-11-22T11:20:23.126Z,99169.97
2022-11-22T11:23:13.785Z,99169.97
2022-11-22T11:25:45.796Z,99175.19
2022-11-22T11:28:24.949Z,99171.69
2022-11-22T11:31:00.737Z,99178.53
2022-11-22T11:33:40.878Z,99174.41
2022-11-22T11:36:14.870Z,99183.13
2022-11-22T11:38:56.211Z,99173.59
2022-11-22T11:41:31.739Z,99180.59
2022-11-22T11:44:05.361Z,99184.91
2022-11-22T11:46:50.761Z,99180.63
2022-11-22T11:49:25.002Z,99194.38
2022-11-22T11:51:57.010Z,99193.59
2022-11-22T11:54:31.022Z,99192.00
2022-11-22T11:57:03.744Z,99189.44
2022-11-22T11:59:44.962Z,99194.66
2022-11-22T12:02:22.066Z,99198.16
2022-11-22T12:04:59.844Z,99192.19
2022-11-22T12:07:44.405Z,99208.53
2022-11-22T12:10:29.130Z,99206.03
2022-11-22T12:13:04.569Z,99194.94
2022-11-22T12:15:52.442Z,99189.78
2022-11-22T12:18:35.797Z,99189.88
2022-11-22T12:21:14.530Z,99186.44
2022-11-22T12:24:07.991Z,99181.34
2022-11-22T12:26:48.728Z,99178.81
2022-11-22T12:29:27.062Z,99186.66
2022-11-22T12:32:04.507Z,99190.22
2022-11-22T12:34:39.546Z,99180.78
2022-11-22T12:37:19.953Z,99186.03
2022-11-22T12:39:50.642Z,99179.13
2022-11-22T12:42:26.480Z,99175.72
2022-11-22T12:45:02.807Z,99174.00
2022-11-22T12:47:45.249Z,99171.50
2022-11-22T12:50:27.850Z,99180.16
2022-11-22T12:53:04.822Z,99170.66
2022-11-22T12:55:43.944Z,99164.69
2022-11-22T12:58:23.151Z,99166.59
2022-11-22T13:01:09.541Z,99164.09
2022-11-22T13:03:46.688Z,99175.25
2022-11-22T13:06:25.410Z,99180.50
2022-11-22T13:09:04.281Z,99174.53
2022-11-22T13:11:42.337Z,99178.81
2022-11-22T13:14:29.209Z,99184.91
2022-11-22T13:16:59.016Z,99178.03
2022-11-22T13:19:32.624Z,99179.72
2022-11-22T13:22:16.806Z,99184.91
2022-11-22T13:25:02.134Z,99167.66
2022-11-22T13:27:35.824Z,99162.44
2022-11-22T13:30:20.894Z,99163.28
2022-11-22T13:32:55.508Z,99167.56
2022-11-22T13:35:35.442Z,99164.13
2022-11-22T13:38:26.226Z,99164.97
2022-11-22T13:41:23.920Z,99164.25
2022-11-22T13:43:57.934Z,99163.47
2022-11-22T13:46:56.363Z,99163.50
2022-11-22T13:49:48.846Z,99162.69
2022-11-22T13:52:47.721Z,99159.28
2022-11-22T13:55:42.746Z,99160.22
2022-11-22T13:58:54.688Z,99155.94
2022-11-22T14:02:02.562Z,99149.00
2022-11-22T14:04:41.311Z,99149.84
2022-11-22T14:07:34.661Z,99149.94
2022-11-22T14:10:31.573Z,99154.31
2022-11-22T14:16:42.901Z,99159.63
2022-11-22T14:19:42.677Z,99173.56
2022-11-22T14:22:20.621Z,99170.16
2022-11-22T14:25:24.035Z,99166.69
2022-11-22T14:27:59.074Z,99162.44
2022-11-22T14:30:40.363Z,99158.13
2022-11-22T14:33:18.939Z,99149.44
2022-11-22T14:36:17.025Z,99158.13
2022-11-22T14:38:46.453Z,99154.72
2022-11-22T14:41:54.403Z,99160.78
2022-11-22T14:44:26.773Z,99163.53
2022-11-22T14:47:00.437Z,99158.38
2022-11-22T14:49:44.293Z,99163.56
2022-11-22T14:52:22.392Z,99173.19
2022-11-22T14:54:57.756Z,99172.44
2022-11-22T14:57:28.421Z,99175.84
2022-11-22T15:00:09.311Z,99169.00
2022-11-22T15:03:11.625Z,99183.56
2022-11-22T15:09:17.844Z,99183.59
2022-11-22T15:09:22.562Z,99179.19
2022-11-22T15:12:13.992Z,99182.59
2022-11-22T15:59:12.957Z,99190.19
2022-11-22T16:01:45.636Z,99191.06
2022-11-22T16:04:23.705Z,99188.59
2022-11-22T16:06:53.999Z,99185.88
2022-11-22T16:09:29.803Z,99184.94
2022-11-22T16:12:04.886Z,99179.78
2022-11-22T16:14:48.855Z,99186.81
2022-11-22T16:17:30.062Z,99183.38
2022-11-22T16:20:34.128Z,99186.91
2022-11-22T16:23:22.208Z,99189.44
2022-11-22T16:25:54.692Z,99192.81
2022-11-22T16:28:31.283Z,99203.19
2022-11-22T16:31:02.886Z,99196.31
2022-11-22T16:33:32.479Z,99192.75
2022-11-22T16:36:03.913Z,99194.44
2022-11-22T16:38:33.448Z,99195.34
2022-11-22T16:41:05.113Z,99198.78
2022-11-22T16:43:36.776Z,99203.06
2022-11-22T16:46:05.979Z,99200.59
2022-11-22T16:48:37.969Z,99205.84
2022-11-22T16:51:08.396Z,99206.63
2022-11-22T16:53:42.924Z,99209.28
2022-11-22T16:56:19.741Z,99205.91
2022-11-22T16:58:53.291Z,99202.50
2022-11-22T17:01:26.843Z,99202.47
2022-11-22T17:03:58.471Z,99194.66
2022-11-22T17:06:28.318Z,99196.31
2022-11-22T17:09:00.723Z,99196.50
2022-11-22T17:11:32.618Z,99205.16
2022-11-22T17:14:04.309Z,99211.19
2022-11-22T17:16:34.539Z,99207.78
2022-11-22T17:19:04.370Z,99200.84
2022-11-22T17:21:38.252Z,99205.16
2022-11-22T17:24:14.817Z,99198.25
2022-11-22T17:26:44.143Z,99208.56
2022-11-22T17:29:35.201Z,99200.75
2022-11-22T17:32:06.173Z,99203.38
2022-11-22T17:34:35.950Z,99212.84
2022-11-22T17:37:07.816Z,99205.06
2022-11-22T17:39:36.691Z,99199.88
2022-11-22T17:42:06.380Z,99205.94
2022-11-22T17:44:37.366Z,99204.25
2022-11-22T17:47:06.671Z,99202.56
2022-11-22T17:49:36.406Z,99198.19
2022-11-22T17:52:05.845Z,99193.84
2022-11-22T17:54:35.448Z,99201.59
2022-11-22T17:57:06.055Z,99197.25
2022-11-22T17:59:35.258Z,99202.47
2022-11-22T18:02:05.909Z,99206.81
2022-11-22T18:04:34.918Z,99208.56
2022-11-22T18:07:03.868Z,99210.34
2022-11-22T18:09:34.873Z,99208.63
2022-11-22T18:12:05.063Z,99210.34
2022-11-22T18:14:34.822Z,99207.69
2022-11-22T18:17:05.922Z,99204.25
2022-11-22T18:19:35.292Z,99209.44
2022-11-22T18:22:04.174Z,99199.97
2022-11-22T18:24:32.891Z,99207.75
2022-11-22T18:27:01.312Z,99208.69
2022-11-22T18:29:46.113Z,99201.88
2022-11-22T18:32:16.324Z,99201.94
2022-11-22T18:34:45.019Z,99197.66
2022-11-22T18:37:13.918Z,99204.56
2022-11-22T18:39:42.699Z,99197.69
2022-11-22T18:42:15.098Z,99209.06
2022-11-22T18:44:44.007Z,99221.16
2022-11-22T18:47:12.888Z,99222.13
2022-11-22T18:49:43.392Z,99220.34
2022-11-22T18:52:15.030Z,99221.19
2022-11-22T18:54:46.982Z,99227.09
2022-11-22T18:57:17.139Z,99226.13
2022-11-22T18:59:46.105Z,99219.16
2022-11-22T19:02:14.875Z,99225.22
2022-11-22T19:04:44.931Z,99221.00
2022-11-22T19:07:14.886Z,99229.75
2022-11-22T19:09:43.898Z,99234.91
2022-11-22T19:12:12.687Z,99229.66
2022-11-22T19:14:41.179Z,99236.53
2022-11-22T19:17:10.735Z,99234.00
2022-11-22T19:19:39.290Z,99235.81
2022-11-22T19:22:09.455Z,99225.47
2022-11-22T19:24:42.501Z,99228.06
2022-11-22T19:27:13.649Z,99241.88
2022-11-22T19:29:42.274Z,99231.63
2022-11-22T19:32:12.156Z,99233.22
2022-11-22T19:34:41.277Z,99240.91
2022-11-22T19:37:11.924Z,99228.84
2022-11-22T19:39:40.877Z,99227.13
2022-11-22T19:42:09.579Z,99228.84
2022-11-22T19:44:38.731Z,99234.03
2022-11-22T19:47:07.581Z,99234.94
2022-11-22T19:49:36.075Z,99242.72
2022-11-22T19:52:05.372Z,99241.78
2022-11-22T19:54:35.403Z,99241.78
2022-11-22T19:57:03.961Z,99241.78
2022-11-22T19:59:34.544Z,99242.72
2022-11-22T20:02:04.018Z,99241.84
2022-11-22T20:04:32.749Z,99252.25
2022-11-22T20:07:01.350Z,99245.34
2022-11-22T20:09:30.809Z,99253.19
2022-11-22T20:12:01.010Z,99262.72
2022-11-22T20:14:30.106Z,99266.22
2022-11-22T20:16:58.967Z,99263.59
2022-11-22T20:19:33.895Z,99268.72
2022-11-22T20:22:03.056Z,99271.38
2022-11-22T20:24:34.259Z,99267.13
2022-11-22T20:27:04.312Z,99269.69
2022-11-22T20:29:32.775Z,99274.94
2022-11-22T20:32:01.793Z,99273.19
2022-11-22T20:34:31.377Z,99269.69
2022-11-22T20:37:02.288Z,99271.56
2022-11-22T20:39:35.498Z,99259.56
2022-11-22T20:42:33.017Z,99267.22
2022-11-22T20:44:56.019Z,99262.03
2022-11-22T20:47:25.685Z,99264.69
2022-11-22T20:49:55.272Z,99253.38
2022-11-22T20:52:24.361Z,99263.66
2022-11-22T20:54:53.369Z,99262.97
2022-11-22T20:57:25.160Z,99259.41
2022-11-22T20:59:54.817Z,99256.81
2022-11-22T21:02:23.372Z,99255.97
2022-11-22T21:04:52.285Z,99262.81
2022-11-22T21:07:22.370Z,99260.19
2022-11-22T21:09:51.656Z,99261.06
2022-11-22T21:12:20.273Z,99261.97
2022-11-22T21:14:53.695Z,99257.72
2022-11-22T21:17:55.594Z,99266.53
2022-11-22T21:20:12.333Z,99268.25
2022-11-22T21:22:41.251Z,99259.59
2022-11-22T21:25:11.402Z,99252.59
2022-11-22T21:27:42.422Z,99252.59
2022-11-22T21:30:13.961Z,99256.09
2022-11-22T21:32:43.111Z,99246.63
2022-11-22T21:35:12.412Z,99238.84
2022-11-22T21:37:42.168Z,99247.44
2022-11-22T21:40:12.296Z,99244.06
2022-11-22T21:42:40.894Z,99242.25
2022-11-22T21:45:10.840Z,99237.09
2022-11-22T21:47:41.023Z,99240.56
2022-11-22T21:50:21.853Z,99234.59
2022-11-22T21:52:50.511Z,99240.56
2022-11-22T21:55:19.520Z,99235.41
2022-11-22T21:57:47.990Z,99240.56
2022-11-22T22:00:18.204Z,99250.88
2022-11-22T22:02:48.200Z,99252.59
2022-11-22T22:05:17.931Z,99252.59
2022-11-22T22:07:54.401Z,99252.72
2022-11-22T22:10:23.496Z,99261.41
2022-11-22T22:12:53.306Z,99247.59
2022-11-22T22:15:21.989Z,99251.84
2022-11-22T22:17:55.047Z,99260.47
2022-11-22T22:20:24.967Z,99257.88
2022-11-22T22:22:53.987Z,99252.72
2022-11-22T22:25:22.614Z,99254.41
2022-11-22T22:27:51.318Z,99253.50
2022-11-22T22:30:19.999Z,99247.44
2022-11-22T22:32:49.002Z,99249.16
2022-11-22T22:35:19.665Z,99244.81
2022-11-22T22:37:48.345Z,99245.69
2022-11-22T22:40:17.427Z,99243.88
2022-11-22T22:42:45.998Z,99253.44
2022-11-22T22:45:14.875Z,99253.41
2022-11-22T22:47:43.355Z,99259.34
2022-11-22T22:50:12.415Z,99254.94
2022-11-22T22:52:42.203Z,99253.19
2022-11-22T22:55:11.142Z,99250.63
2022-11-22T22:57:39.792Z,99248.06
2022-11-22T23:00:13.876Z,99242.03
2022-11-22T23:02:43.016Z,99238.66
2022-11-22T23:05:12.694Z,99236.91
2022-11-22T23:07:44.003Z,99232.56
2022-11-22T23:10:12.910Z,99235.13
2022-11-22T23:12:41.836Z,99234.22
2022-11-22T23:15:11.586Z,99234.22
2022-11-22T23:17:41.367Z,99243.75
2022-11-22T23:20:10.939Z,99241.09
2022-11-22T23:22:39.732Z,99240.34
2022-11-22T23:25:10.993Z,99248.19
2022-11-22T23:27:39.791Z,99239.53
2022-11-22T23:30:09.722Z,99235.16
2022-11-22T23:32:39.485Z,99249.78
2022-11-22T23:35:09.187Z,99245.59
2022-11-22T23:37:40.343Z,99243.88
2022-11-22T23:40:12.401Z,99246.44
2022-11-22T23:42:40.857Z,99246.50
2022-11-22T23:45:19.587Z,99249.97
2022-11-22T23:47:52.010Z,99247.38
2022-11-22T23:50:21.337Z,99245.59
2022-11-22T23:52:55.344Z,99237.75
2022-11-22T23:55:25.751Z,99237.75
2022-11-22T23:57:54.522Z,99236.84
